الصفحة الرئيسية
METAR-TAF:

METAR-TAF

مطار :

بورت مورسبي, بابوا نيو غينياالجديدة

دائرة عرض: 09-26S, خط طول: 147-13E, ارتفاع: 38 متر

مراقبة الطقس الحالي

تاريخ ووقت الإصدار 43 دقيقة قبل الساعة 06:00UTC
ريح 10 عقدة من الجنوب/الجنوب الغربي
درجة الحرارة 30°درجة مئوية
الرطوبة 70%
ضغط 1008 hPa
الرؤية 10 كم أو أكثر
غيوم قليلة على ارتفاع 2000 قدم
غيوم متفرقة على ارتفاع 3000 قدم

METAR: AYPY 060600Z 20010KT 9999 FEW020 SCT030 30/24 Q1008

زمن: 16:43 (06:43 UTC)

توقعات

تاريخ ووقت الإصدار 3ساعات و 3 دقيقة قبل الساعة 03:40UTC
التوقعات صالحة من06 الساعة 06 UTC إلى 07 الساعة 06 UTC
ريح 7 عقدة من الجنوب/الجنوب الشرقي
الرؤية 10 كم أو أكثر
غيوم متفرقة على ارتفاع 1800 قدم
غيوم متفرقة على ارتفاع 14000 قدم
من 06 الساعة 1800 UTC
ريح 3 عقدةمن اتجاهات متغيرة
الرؤية 10 كم أو أكثر
غيوم متفرقة على ارتفاع 3500 قدم
نظرية الاحتمالات 30%
من 06 الساعة 19 UTC إلى 06 الساعة 21 UTC
الرؤية: 0600 متر
ضباب

TAF: AYPY 060340Z 0606/0706 16007KT 9999 SCT018 SCT140 FM061800 VRB03KT 9999 SCT035 PROB30 0619/0621 0600 FG

أرصاد الطقس والتوقعات من أكثر من 4000 مطار (تقارير الطقس للمطار METAR والتنبؤ بالطقس بالمطارTAF).

المحطات المتاحة هي النقط الصفراء والحمراء على الخريطة.

حرك المؤشر فوق النقطة لمعرفة اسم المحطة.

ثم انقر لمعرفة أرصاد وتوقعات الطقس.

لتغيير الخارطة: اضغط على الأزرار الخضراء مع رمز الصليب الأسود للتكبير. على الزر الأخضر مع شرطة للتصغير، أو على الأسهم الخضراء للخرائط المجاورة.


METAR-TAF: